Time,TemperatureF,DewpointF,PressureIn,WindDirection,WindDirectionDegrees,WindSpeedMPH,WindSpeedGustMPH,Humidity,HourlyPrecipIn,Conditions,Clouds,dailyrainin,SoftwareType,DateUTC
2013-01-13 00:00:00,39.0,38.7,30.15,South,182,0.0,3.0,99,0.00,,,0.01,HR-IXPWINDi_r2_v1.2.,2013-01-13 05:00:00,
2013-01-13 00:05:00,39.0,38.7,30.15,South,183,1.0,4.0,99,0.00,,,0.00,HR-IXPWINDi_r2_v1.2.,2013-01-13 05:05:00,
2013-01-13 00:10:00,38.9,38.6,30.15,South,190,1.0,4.0,99,0.00,,,0.00,HR-IXPWINDi_r2_v1.2.,2013-01-13 05:10:00,
2013-01-13 00:16:00,38.9,38.6,30.15,SSW,194,3.0,4.0,99,0.00,,,0.00,HR-IXPWINDi_r2_v1.2.,2013-01-13 05:16:00,
2013-01-13 00:21:00,38.9,38.6,30.15,South,185,1.0,5.0,99,0.00,,,0.00,HR-IXPWINDi_r2_v1.2.,2013-01-13 05:21:00,
2013-01-13 00:26:00,38.9,38.6,30.15,SSW,193,1.0,5.0,99,0.00,,,0.00,HR-IXPWINDi_r2_v1.2.,2013-01-13 05:26:00,
2013-01-13 00:31:00,38.8,38.5,30.15,South,178,2.0,3.0,99,0.00,,,0.00,HR-IXPWINDi_r2_v1.2.,2013-01-13 05:31:00,
2013-01-13 00:37:00,38.5,38.2,30.15,South,169,3.0,4.0,99,0.00,,,0.00,HR-IXPWINDi_r2_v1.2.,2013-01-13 05:37:00,
2013-01-13 00:42:00,38.5,38.2,30.15,South,188,1.0,4.0,99,0.00,,,0.00,HR-IXPWINDi_r2_v1.2.,2013-01-13 05:42:00,
2013-01-13 00:47:00,38.6,38.3,30.14,South,183,0.0,4.0,99,0.00,,,0.00,HR-IXPWINDi_r2_v1.2.,2013-01-13 05:47:00,
2013-01-13 00:52:00,38.6,38.3,30.14,South,190,0.0,4.0,99,0.00,,,0.00,HR-IXPWINDi_r2_v1.2.,2013-01-13 05:52:00,
2013-01-13 00:58:00,38.5,38.2,30.14,South,190,0.0,2.0,99,0.00,,,0.00,HR-IXPWINDi_r2_v1.2.,2013-01-13 05:58:00,
2013-01-13 01:03:00,38.4,38.1,30.14,South,188,1.0,1.0,99,0.00,,,0.00,HR-IXPWINDi_r2_v1.2.,2013-01-13 06:03:00,
2013-01-13 01:08:00,38.4,38.1,30.14,South,188,0.0,1.0,99,0.00,,,0.00,HR-IXPWINDi_r2_v1.2.,2013-01-13 06:08:00,
2013-01-13 01:13:00,38.0,37.7,30.14,South,188,0.0,1.0,99,0.00,,,0.00,HR-IXPWINDi_r2_v1.2.,2013-01-13 06:13:00,
2013-01-13 01:18:00,38.3,38.0,30.14,South,178,0.0,2.0,99,0.00,,,0.00,HR-IXPWINDi_r2_v1.2.,2013-01-13 06:18:00,
2013-01-13 01:24:00,38.3,38.0,30.15,South,178,0.0,2.0,99,0.00,,,0.00,HR-IXPWINDi_r2_v1.2.,2013-01-13 06:24:00,
2013-01-13 01:29:00,38.1,37.8,30.14,South,178,0.0,1.0,99,0.00,,,0.00,HR-IXPWINDi_r2_v1.2.,2013-01-13 06:29:00,
2013-01-13 01:34:00,38.2,37.9,30.14,South,178,0.0,1.0,99,0.00,,,0.00,HR-IXPWINDi_r2_v1.2.,2013-01-13 06:34:00,
2013-01-13 01:39:00,38.2,37.9,30.15,South,180,0.0,1.0,99,0.00,,,0.00,HR-IXPWINDi_r2_v1.2.,2013-01-13 06:39:00,
2013-01-13 01:44:00,38.0,37.7,30.15,SSE,162,0.0,0.0,99,0.00,,,0.00,HR-IXPWINDi_r2_v1.2.,2013-01-13 06:44:00,
2013-01-13 01:50:00,37.8,37.5,30.15,SSE,162,0.0,0.0,99,0.00,,,0.00,HR-IXPWINDi_r2_v1.2.,2013-01-13 06:50:00,
2013-01-13 01:55:00,37.7,37.4,30.15,SSE,162,0.0,0.0,99,0.00,,,0.00,HR-IXPWINDi_r2_v1.2.,2013-01-13 06:55:00,
2013-01-13 02:00:00,37.6,37.3,30.14,SSE,161,0.0,0.0,99,0.00,,,0.00,HR-IXPWINDi_r2_v1.2.,2013-01-13 07:00:00,
2013-01-13 02:05:00,37.5,37.2,30.14,SSE,162,0.0,0.0,99,0.00,,,0.00,HR-IXPWINDi_r2_v1.2.,2013-01-13 07:05:00,
2013-01-13 02:10:00,37.7,37.4,30.14,SSE,162,0.0,0.0,99,0.00,,,0.00,HR-IXPWINDi_r2_v1.2.,2013-01-13 07:10:00,
2013-01-13 02:16:00,37.9,37.6,30.14,South,184,0.0,1.0,99,0.00,,,0.00,HR-IXPWINDi_r2_v1.2.,2013-01-13 07:16:00,
2013-01-13 02:21:00,37.4,37.1,30.14,South,184,0.0,1.0,99,0.00,,,0.00,HR-IXPWINDi_r2_v1.2.,2013-01-13 07:21:00,
2013-01-13 02:26:00,37.6,37.3,30.14,South,189,0.0,1.0,99,0.00,,,0.00,HR-IXPWINDi_r2_v1.2.,2013-01-13 07:26:00,
2013-01-13 02:31:00,37.8,37.5,30.14,SSW,193,0.0,1.0,99,0.00,,,0.00,HR-IXPWINDi_r2_v1.2.,2013-01-13 07:31:00,
2013-01-13 02:36:00,38.3,38.3,30.14,South,186,0.0,2.0,100,0.00,,,0.00,HR-IXPWINDi_r2_v1.2.,2013-01-13 07:36:00,
2013-01-13 02:41:00,38.5,38.5,30.14,South,176,1.0,2.0,100,0.00,,,0.00,HR-IXPWINDi_r2_v1.2.,2013-01-13 07:41:00,
2013-01-13 02:47:00,38.3,38.3,30.13,South,176,0.0,2.0,100,0.00,,,0.00,HR-IXPWINDi_r2_v1.2.,2013-01-13 07:47:00,
2013-01-13 02:52:00,37.9,37.6,30.12,South,176,0.0,1.0,99,0.00,,,0.00,HR-IXPWINDi_r2_v1.2.,2013-01-13 07:52:00,
2013-01-13 02:57:00,38.2,37.9,30.12,South,176,0.0,0.0,99,0.00,,,0.00,HR-IXPWINDi_r2_v1.2.,2013-01-13 07:57:00,
2013-01-13 03:02:00,38.2,38.2,30.13,SSW,199,0.0,2.0,100,0.00,,,0.00,HR-IXPWINDi_r2_v1.2.,2013-01-13 08:02:00,
2013-01-13 03:08:00,38.4,38.4,30.13,SSW,199,0.0,2.0,100,0.00,,,0.00,HR-IXPWINDi_r2_v1.2.,2013-01-13 08:08:00,
2013-01-13 03:13:00,38.5,38.5,30.12,SSW,200,0.0,1.0,100,0.00,,,0.00,HR-IXPWINDi_r2_v1.2.,2013-01-13 08:13:00,
2013-01-13 03:18:00,38.5,38.5,30.12,SSW,199,0.0,1.0,100,0.00,,,0.00,HR-IXPWINDi_r2_v1.2.,2013-01-13 08:18:00,
2013-01-13 03:23:00,38.7,38.7,30.12,SSW,199,0.0,0.0,100,0.00,,,0.00,HR-IXPWINDi_r2_v1.2.,2013-01-13 08:23:00,
2013-01-13 03:28:00,38.5,38.5,30.13,SSW,197,0.0,1.0,100,0.00,,,0.00,HR-IXPWINDi_r2_v1.2.,2013-01-13 08:28:00,
2013-01-13 03:34:00,38.1,38.1,30.13,SSW,197,0.0,1.0,100,0.00,,,0.00,HR-IXPWINDi_r2_v1.2.,2013-01-13 08:34:00,
2013-01-13 03:39:00,38.1,37.8,30.13,SSW,197,0.0,0.0,99,0.00,,,0.00,HR-IXPWINDi_r2_v1.2.,2013-01-13 08:39:00,
2013-01-13 03:44:00,37.8,37.5,30.12,SSW,197,0.0,0.0,99,0.00,,,0.00,HR-IXPWINDi_r2_v1.2.,2013-01-13 08:44:00,
2013-01-13 03:49:00,37.7,37.4,30.13,SSW,198,2.0,2.0,99,0.00,,,0.00,HR-IXPWINDi_r2_v1.2.,2013-01-13 08:49:00,
2013-01-13 03:54:00,37.8,37.5,30.13,South,190,1.0,2.0,99,0.00,,,0.00,HR-IXPWINDi_r2_v1.2.,2013-01-13 08:54:00,
2013-01-13 03:59:00,37.6,37.3,30.13,SSW,195,0.0,2.0,99,0.00,,,0.00,HR-IXPWINDi_r2_v1.2.,2013-01-13 08:59:00,
2013-01-13 04:05:00,37.7,37.4,30.13,SSW,193,0.0,1.0,99,0.00,,,0.00,HR-IXPWINDi_r2_v1.2.,2013-01-13 09:05:00,
2013-01-13 04:10:00,37.7,37.4,30.13,SSW,195,0.0,0.0,99,0.00,,,0.00,HR-IXPWINDi_r2_v1.2.,2013-01-13 09:10:00,
2013-01-13 04:15:00,37.5,37.2,30.14,SSW,206,0.0,0.0,99,0.00,,,0.00,HR-IXPWINDi_r2_v1.2.,2013-01-13 09:15:00,
2013-01-13 04:20:00,37.4,37.1,30.14,SSW,207,0.0,0.0,99,0.00,,,0.00,HR-IXPWINDi_r2_v1.2.,2013-01-13 09:20:00,
2013-01-13 04:25:00,37.5,37.2,30.13,SSW,206,0.0,0.0,99,0.00,,,0.00,HR-IXPWINDi_r2_v1.2.,2013-01-13 09:25:00,
2013-01-13 04:30:00,37.2,36.9,30.13,SSW,207,0.0,0.0,99,0.00,,,0.00,HR-IXPWINDi_r2_v1.2.,2013-01-13 09:30:00,
2013-01-13 04:36:00,36.8,36.5,30.13,SSW,207,0.0,0.0,99,0.00,,,0.00,HR-IXPWINDi_r2_v1.2.,2013-01-13 09:36:00,
2013-01-13 04:41:00,37.0,36.7,30.12,SSW,207,0.0,0.0,99,0.00,,,0.00,HR-IXPWINDi_r2_v1.2.,2013-01-13 09:41:00,
2013-01-13 04:46:00,37.1,36.8,30.12,SSW,207,0.0,0.0,99,0.00,,,0.00,HR-IXPWINDi_r2_v1.2.,2013-01-13 09:46:00,
2013-01-13 04:51:00,36.9,36.6,30.12,SSW,206,0.0,0.0,99,0.00,,,0.00,HR-IXPWINDi_r2_v1.2.,2013-01-13 09:51:00,
2013-01-13 04:57:00,36.9,36.6,30.12,SSW,206,0.0,0.0,99,0.00,,,0.00,HR-IXPWINDi_r2_v1.2.,2013-01-13 09:57:00,
2013-01-13 05:02:00,36.7,36.4,30.12,SSW,207,0.0,0.0,99,0.00,,,0.00,HR-IXPWINDi_r2_v1.2.,2013-01-13 10:02:00,
2013-01-13 05:07:00,36.7,36.4,30.12,SSW,206,0.0,0.0,99,0.00,,,0.00,HR-IXPWINDi_r2_v1.2.,2013-01-13 10:07:00,
2013-01-13 05:12:00,36.9,36.6,30.12,SSW,207,0.0,0.0,99,0.00,,,0.00,HR-IXPWINDi_r2_v1.2.,2013-01-13 10:12:00,
2013-01-13 05:18:00,36.9,36.6,30.12,SSW,207,0.0,0.0,99,0.00,,,0.00,HR-IXPWINDi_r2_v1.2.,2013-01-13 10:18:00,
2013-01-13 05:23:00,36.8,36.5,30.12,SSW,207,0.0,0.0,99,0.00,,,0.00,HR-IXPWINDi_r2_v1.2.,2013-01-13 10:23:00,
2013-01-13 05:28:00,36.9,36.9,30.10,SSW,207,0.0,0.0,100,0.00,,,0.00,HR-IXPWINDi_r2_v1.2.,2013-01-13 10:28:00,
2013-01-13 05:33:00,36.7,36.4,30.11,SSW,206,0.0,0.0,99,0.00,,,0.00,HR-IXPWINDi_r2_v1.2.,2013-01-13 10:33:00,
2013-01-13 05:38:00,36.6,36.3,30.11,SSW,207,0.0,0.0,99,0.00,,,0.00,HR-IXPWINDi_r2_v1.2.,2013-01-13 10:38:00,
2013-01-13 05:44:00,37.1,37.1,30.11,SSW,206,0.0,0.0,100,0.00,,,0.00,HR-IXPWINDi_r2_v1.2.,2013-01-13 10:44:00,
2013-01-13 05:49:00,37.3,37.3,30.11,SSW,201,0.0,0.0,100,0.00,,,0.00,HR-IXPWINDi_r2_v1.2.,2013-01-13 10:49:00,
2013-01-13 05:54:00,37.6,37.6,30.11,South,186,0.0,0.0,100,0.00,,,0.00,HR-IXPWINDi_r2_v1.2.,2013-01-13 10:54:00,
2013-01-13 05:59:00,37.2,37.2,30.11,South,187,0.0,0.0,100,0.00,,,0.00,HR-IXPWINDi_r2_v1.2.,2013-01-13 10:59:00,
2013-01-13 06:04:00,36.9,36.9,30.11,South,186,0.0,0.0,100,0.00,,,0.00,HR-IXPWINDi_r2_v1.2.,2013-01-13 11:04:00,
2013-01-13 06:10:00,37.2,37.2,30.11,South,186,0.0,0.0,100,0.00,,,0.00,HR-IXPWINDi_r2_v1.2.,2013-01-13 11:10:00,
2013-01-13 06:15:00,37.3,37.3,30.11,South,191,0.0,0.0,100,0.00,,,0.00,HR-IXPWINDi_r2_v1.2.,2013-01-13 11:15:00,
2013-01-13 06:20:00,37.0,37.0,30.11,South,190,0.0,0.0,100,0.00,,,0.00,HR-IXPWINDi_r2_v1.2.,2013-01-13 11:20:00,
2013-01-13 06:25:00,37.2,37.2,30.11,South,185,1.0,3.0,100,0.00,,,0.00,HR-IXPWINDi_r2_v1.2.,2013-01-13 11:25:00,
2013-01-13 06:31:00,37.5,37.5,30.12,SSW,194,0.0,3.0,100,0.00,,,0.00,HR-IXPWINDi_r2_v1.2.,2013-01-13 11:31:00,
2013-01-13 06:36:00,37.5,37.5,30.12,South,180,0.0,3.0,100,0.00,,,0.00,HR-IXPWINDi_r2_v1.2.,2013-01-13 11:36:00,
2013-01-13 06:41:00,37.4,37.4,30.12,South,181,1.0,3.0,100,0.00,,,0.00,HR-IXPWINDi_r2_v1.2.,2013-01-13 11:41:00,
2013-01-13 06:46:00,37.6,37.6,30.13,SSW,208,1.0,2.0,100,0.00,,,0.00,HR-IXPWINDi_r2_v1.2.,2013-01-13 11:46:00,
2013-01-13 06:51:00,37.6,37.6,30.12,SE,133,0.0,4.0,100,0.00,,,0.00,HR-IXPWINDi_r2_v1.2.,2013-01-13 11:51:00,
2013-01-13 06:57:00,37.2,37.2,30.13,SSE,164,0.0,4.0,100,0.00,,,0.00,HR-IXPWINDi_r2_v1.2.,2013-01-13 11:57:00,
2013-01-13 07:02:00,37.1,37.1,30.13,SSE,164,0.0,1.0,100,0.00,,,0.00,HR-IXPWINDi_r2_v1.2.,2013-01-13 12:02:00,
2013-01-13 07:07:00,37.1,37.1,30.13,SSE,164,0.0,0.0,100,0.00,,,0.00,HR-IXPWINDi_r2_v1.2.,2013-01-13 12:07:00,
2013-01-13 07:12:00,37.1,37.1,30.13,SSW,192,1.0,3.0,100,0.00,,,0.00,HR-IXPWINDi_r2_v1.2.,2013-01-13 12:12:00,
2013-01-13 07:17:00,37.3,37.3,30.13,SSW,193,0.0,3.0,100,0.00,,,0.00,HR-IXPWINDi_r2_v1.2.,2013-01-13 12:17:00,
2013-01-13 07:23:00,37.1,37.1,30.13,SSW,192,0.0,1.0,100,0.00,,,0.00,HR-IXPWINDi_r2_v1.2.,2013-01-13 12:23:00,
2013-01-13 07:28:00,37.1,37.1,30.13,SSW,201,2.0,3.0,100,0.00,,,0.00,HR-IXPWINDi_r2_v1.2.,2013-01-13 12:28:00,
2013-01-13 07:33:00,37.5,37.5,30.13,SSW,193,2.0,3.0,100,0.00,,,0.00,HR-IXPWINDi_r2_v1.2.,2013-01-13 12:33:00,
2013-01-13 07:38:00,37.6,37.6,30.13,SSW,197,0.0,3.0,100,0.00,,,0.00,HR-IXPWINDi_r2_v1.2.,2013-01-13 12:38:00,
2013-01-13 07:43:00,37.6,37.6,30.13,SSW,200,0.0,3.0,100,0.00,,,0.00,HR-IXPWINDi_r2_v1.2.,2013-01-13 12:43:00,
2013-01-13 07:49:00,37.7,37.7,30.13,South,169,1.0,3.0,100,0.00,,,0.00,HR-IXPWINDi_r2_v1.2.,2013-01-13 12:49:00,
2013-01-13 07:54:00,37.7,37.7,30.13,South,178,3.0,6.0,100,0.00,,,0.00,HR-IXPWINDi_r2_v1.2.,2013-01-13 12:54:00,
2013-01-13 07:59:00,37.8,37.8,30.13,South,176,1.0,6.0,100,0.00,,,0.00,HR-IXPWINDi_r2_v1.2.,2013-01-13 12:59:00,
2013-01-13 08:04:00,37.8,37.8,30.13,South,176,0.0,5.0,100,0.00,,,0.00,HR-IXPWINDi_r2_v1.2.,2013-01-13 13:04:00,
2013-01-13 08:09:00,37.8,37.8,30.13,South,179,0.0,5.0,100,0.00,,,0.00,HR-IXPWINDi_r2_v1.2.,2013-01-13 13:09:00,
2013-01-13 08:15:00,37.7,37.7,30.13,South,171,1.0,5.0,100,0.00,,,0.00,HR-IXPWINDi_r2_v1.2.,2013-01-13 13:15:00,
2013-01-13 08:20:00,37.7,37.7,30.14,South,186,1.0,4.0,100,0.00,,,0.00,HR-IXPWINDi_r2_v1.2.,2013-01-13 13:20:00,
2013-01-13 08:25:00,38.0,38.0,30.14,South,178,0.0,5.0,100,0.00,,,0.00,HR-IXPWINDi_r2_v1.2.,2013-01-13 13:25:00,
2013-01-13 08:30:00,38.0,38.0,30.14,South,169,4.0,5.0,100,0.00,,,0.00,HR-IXPWINDi_r2_v1.2.,2013-01-13 13:30:00,
2013-01-13 08:35:00,38.0,38.0,30.14,South,171,1.0,4.0,100,0.00,,,0.00,HR-IXPWINDi_r2_v1.2.,2013-01-13 13:35:00,
2013-01-13 08:41:00,38.1,38.1,30.14,South,180,0.0,4.0,100,0.00,,,0.00,HR-IXPWINDi_r2_v1.2.,2013-01-13 13:41:00,
2013-01-13 08:46:00,38.0,38.0,30.14,SSW,199,2.0,2.0,100,0.00,,,0.00,HR-IXPWINDi_r2_v1.2.,2013-01-13 13:46:00,
2013-01-13 08:51:00,38.2,38.2,30.14,SSW,194,3.0,4.0,100,0.00,,,0.00,HR-IXPWINDi_r2_v1.2.,2013-01-13 13:51:00,
2013-01-13 08:56:00,38.3,38.3,30.14,SSE,159,1.0,4.0,100,0.00,,,0.00,HR-IXPWINDi_r2_v1.2.,2013-01-13 13:56:00,
2013-01-13 09:01:00,38.2,38.2,30.14,SSW,200,3.0,4.0,100,0.00,,,0.00,HR-IXPWINDi_r2_v1.2.,2013-01-13 14:01:00,
2013-01-13 09:06:00,38.4,38.4,30.14,South,180,0.0,4.0,100,0.00,,,0.00,HR-IXPWINDi_r2_v1.2.,2013-01-13 14:06:00,
2013-01-13 09:12:00,38.5,38.5,30.14,South,181,0.0,4.0,100,0.00,,,0.00,HR-IXPWINDi_r2_v1.2.,2013-01-13 14:12:00,
2013-01-13 09:17:00,38.6,38.6,30.14,SSW,193,0.0,5.0,100,0.00,,,0.00,HR-IXPWINDi_r2_v1.2.,2013-01-13 14:17:00,
2013-01-13 09:22:00,38.7,38.7,30.14,SSW,194,2.0,5.0,100,0.00,,,0.00,HR-IXPWINDi_r2_v1.2.,2013-01-13 14:22:00,
2013-01-13 09:27:00,38.9,38.9,30.15,South,188,2.0,5.0,100,0.00,,,0.00,HR-IXPWINDi_r2_v1.2.,2013-01-13 14:27:00,
2013-01-13 09:32:00,39.1,39.0,30.15,South,169,0.0,5.0,100,0.00,,,0.00,HR-IXPWINDi_r2_v1.2.,2013-01-13 14:32:00,
2013-01-13 09:38:00,39.2,39.1,30.15,SSE,166,0.0,2.0,100,0.00,,,0.00,HR-IXPWINDi_r2_v1.2.,2013-01-13 14:38:00,
2013-01-13 09:43:00,39.3,39.2,30.14,South,185,0.0,2.0,100,0.00,,,0.00,HR-IXPWINDi_r2_v1.2.,2013-01-13 14:43:00,
2013-01-13 09:48:00,39.3,39.2,30.15,SSW,197,1.0,5.0,100,0.00,,,0.00,HR-IXPWINDi_r2_v1.2.,2013-01-13 14:48:00,
2013-01-13 09:53:00,39.4,39.3,30.15,South,181,0.0,5.0,100,0.00,,,0.00,HR-IXPWINDi_r2_v1.2.,2013-01-13 14:53:00,
2013-01-13 09:58:00,39.3,39.2,30.14,SSW,197,1.0,5.0,100,0.00,,,0.00,HR-IXPWINDi_r2_v1.2.,2013-01-13 14:58:00,
2013-01-13 10:03:00,39.5,39.4,30.14,SSE,159,3.0,4.0,100,0.00,,,0.00,HR-IXPWINDi_r2_v1.2.,2013-01-13 15:03:00,
2013-01-13 10:09:00,39.6,39.5,30.14,South,177,2.0,5.0,100,0.00,,,0.00,HR-IXPWINDi_r2_v1.2.,2013-01-13 15:09:00,
2013-01-13 10:14:00,39.7,39.6,30.14,SSW,212,2.0,5.0,100,0.00,,,0.00,HR-IXPWINDi_r2_v1.2.,2013-01-13 15:14:00,
2013-01-13 10:19:00,39.8,39.7,30.14,South,191,2.0,4.0,100,0.00,,,0.00,HR-IXPWINDi_r2_v1.2.,2013-01-13 15:19:00,
2013-01-13 10:24:00,39.9,39.8,30.14,SSW,198,3.0,4.0,100,0.00,,,0.00,HR-IXPWINDi_r2_v1.2.,2013-01-13 15:24:00,
2013-01-13 10:29:00,40.1,40.0,30.14,SSW,197,0.0,4.0,100,0.00,,,0.00,HR-IXPWINDi_r2_v1.2.,2013-01-13 15:29:00,
2013-01-13 10:35:00,40.1,40.0,30.14,SSW,208,1.0,4.0,100,0.00,,,0.00,HR-IXPWINDi_r2_v1.2.,2013-01-13 15:35:00,
2013-01-13 10:40:00,40.3,40.2,30.14,South,191,0.0,4.0,100,0.00,,,0.00,HR-IXPWINDi_r2_v1.2.,2013-01-13 15:40:00,
2013-01-13 10:45:00,40.4,40.3,30.13,South,174,1.0,5.0,100,0.00,,,0.00,HR-IXPWINDi_r2_v1.2.,2013-01-13 15:45:00,
2013-01-13 10:50:00,40.3,40.2,30.13,South,187,0.0,5.0,100,0.00,,,0.00,HR-IXPWINDi_r2_v1.2.,2013-01-13 15:50:00,
2013-01-13 10:55:00,40.4,40.3,30.13,South,191,0.0,6.0,100,0.00,,,0.00,HR-IXPWINDi_r2_v1.2.,2013-01-13 15:55:00,
2013-01-13 11:01:00,40.5,40.4,30.13,South,171,1.0,6.0,100,0.00,,,0.00,HR-IXPWINDi_r2_v1.2.,2013-01-13 16:01:00,
2013-01-13 11:06:00,40.5,40.4,30.13,South,171,2.0,5.0,100,0.00,,,0.00,HR-IXPWINDi_r2_v1.2.,2013-01-13 16:06:00,
2013-01-13 11:11:00,40.7,40.6,30.12,South,186,1.0,5.0,100,0.00,,,0.00,HR-IXPWINDi_r2_v1.2.,2013-01-13 16:11:00,
2013-01-13 11:16:00,40.6,40.5,30.12,South,170,1.0,5.0,100,0.00,,,0.00,HR-IXPWINDi_r2_v1.2.,2013-01-13 16:16:00,
2013-01-13 11:21:00,40.6,40.5,30.12,South,176,2.0,4.0,100,0.00,,,0.00,HR-IXPWINDi_r2_v1.2.,2013-01-13 16:21:00,
2013-01-13 11:26:00,40.8,40.7,30.11,SSE,159,2.0,4.0,100,0.00,,,0.00,HR-IXPWINDi_r2_v1.2.,2013-01-13 16:26:00,
2013-01-13 11:32:00,40.9,40.8,30.11,South,173,1.0,4.0,100,0.00,,,0.00,HR-IXPWINDi_r2_v1.2.,2013-01-13 16:32:00,
2013-01-13 11:37:00,41.1,41.0,30.11,South,176,2.0,5.0,100,0.00,,,0.00,HR-IXPWINDi_r2_v1.2.,2013-01-13 16:37:00,
2013-01-13 11:42:00,41.0,40.9,30.11,South,185,3.0,5.0,100,0.00,,,0.00,HR-IXPWINDi_r2_v1.2.,2013-01-13 16:42:00,
2013-01-13 11:47:00,41.2,41.1,30.11,SSW,200,2.0,6.0,100,0.00,,,0.00,HR-IXPWINDi_r2_v1.2.,2013-01-13 16:47:00,
2013-01-13 11:52:00,41.0,40.9,30.11,SSW,194,5.0,7.0,100,0.00,,,0.00,HR-IXPWINDi_r2_v1.2.,2013-01-13 16:52:00,
2013-01-13 11:58:00,40.9,40.8,30.11,SSE,155,3.0,7.0,100,0.00,,,0.00,HR-IXPWINDi_r2_v1.2.,2013-01-13 16:58:00,
2013-01-13 12:03:00,40.9,40.8,30.10,SSE,152,3.0,5.0,100,0.00,,,0.00,HR-IXPWINDi_r2_v1.2.,2013-01-13 17:03:00,
2013-01-13 12:08:00,40.9,40.8,30.09,South,187,0.0,5.0,100,0.00,,,0.00,HR-IXPWINDi_r2_v1.2.,2013-01-13 17:08:00,
2013-01-13 12:13:00,41.1,41.0,30.09,South,173,1.0,5.0,100,0.00,,,0.00,HR-IXPWINDi_r2_v1.2.,2013-01-13 17:13:00,
2013-01-13 12:18:00,40.9,40.8,30.09,South,190,2.0,5.0,100,0.00,,,0.00,HR-IXPWINDi_r2_v1.2.,2013-01-13 17:18:00,
2013-01-13 12:24:00,41.1,41.0,30.09,South,189,1.0,3.0,100,0.00,,,0.00,HR-IXPWINDi_r2_v1.2.,2013-01-13 17:24:00,
2013-01-13 12:29:00,41.1,41.0,30.08,SSE,166,3.0,4.0,100,0.00,,,0.00,HR-IXPWINDi_r2_v1.2.,2013-01-13 17:29:00,
2013-01-13 12:34:00,41.0,40.9,30.07,SSW,200,2.0,6.0,100,0.00,,,0.00,HR-IXPWINDi_r2_v1.2.,2013-01-13 17:34:00,
2013-01-13 12:39:00,40.9,40.8,30.08,SSW,201,1.0,6.0,100,0.00,,,0.00,HR-IXPWINDi_r2_v1.2.,2013-01-13 17:39:00,
2013-01-13 12:44:00,40.8,40.7,30.07,South,183,1.0,3.0,100,0.00,,,0.00,HR-IXPWINDi_r2_v1.2.,2013-01-13 17:44:00,
2013-01-13 12:49:00,40.9,40.8,30.07,SSW,193,0.0,3.0,100,0.00,,,0.00,HR-IXPWINDi_r2_v1.2.,2013-01-13 17:49:00,
2013-01-13 12:54:00,41.0,40.9,30.07,South,180,0.0,2.0,100,0.00,,,0.00,HR-IXPWINDi_r2_v1.2.,2013-01-13 17:54:00,
2013-01-13 13:00:00,40.9,40.8,30.06,South,185,0.0,2.0,100,0.00,,,0.00,HR-IXPWINDi_r2_v1.2.,2013-01-13 18:00:00,
2013-01-13 13:05:00,41.1,41.0,30.07,SSW,204,0.0,2.0,100,0.00,,,0.00,HR-IXPWINDi_r2_v1.2.,2013-01-13 18:05:00,
2013-01-13 13:10:00,41.1,41.0,30.07,SSW,199,1.0,2.0,100,0.00,,,0.00,HR-IXPWINDi_r2_v1.2.,2013-01-13 18:10:00,
2013-01-13 13:15:00,41.1,41.0,30.06,South,184,2.0,3.0,100,0.00,,,0.00,HR-IXPWINDi_r2_v1.2.,2013-01-13 18:15:00,
2013-01-13 13:20:00,41.1,41.0,30.06,South,183,0.0,3.0,100,0.00,,,0.00,HR-IXPWINDi_r2_v1.2.,2013-01-13 18:20:00,
2013-01-13 13:25:00,41.1,41.0,30.06,South,184,0.0,3.0,100,0.00,,,0.00,HR-IXPWINDi_r2_v1.2.,2013-01-13 18:25:00,
2013-01-13 13:31:00,41.1,41.0,30.06,South,188,0.0,3.0,100,0.00,,,0.00,HR-IXPWINDi_r2_v1.2.,2013-01-13 18:31:00,
2013-01-13 13:36:00,40.8,40.7,30.06,SSE,156,0.0,4.0,100,0.00,,,0.00,HR-IXPWINDi_r2_v1.2.,2013-01-13 18:36:00,
2013-01-13 13:41:00,40.9,40.8,30.05,SSW,212,0.0,4.0,100,0.00,,,0.00,HR-IXPWINDi_r2_v1.2.,2013-01-13 18:41:00,
2013-01-13 13:46:00,41.1,41.0,30.05,SSW,212,0.0,1.0,100,0.00,,,0.00,HR-IXPWINDi_r2_v1.2.,2013-01-13 18:46:00,
2013-01-13 13:51:00,41.3,41.2,30.05,SSW,200,0.0,2.0,100,0.00,,,0.00,HR-IXPWINDi_r2_v1.2.,2013-01-13 18:51:00,
2013-01-13 13:57:00,41.3,41.2,30.05,SSW,195,0.0,2.0,100,0.00,,,0.00,HR-IXPWINDi_r2_v1.2.,2013-01-13 18:57:00,
2013-01-13 14:02:00,41.3,41.2,30.04,South,183,0.0,7.0,100,0.00,,,0.00,HR-IXPWINDi_r2_v1.2.,2013-01-13 19:02:00,
2013-01-13 14:07:00,41.4,41.3,30.04,SSW,196,0.0,7.0,100,0.00,,,0.00,HR-IXPWINDi_r2_v1.2.,2013-01-13 19:07:00,
2013-01-13 14:12:00,41.7,41.6,30.04,South,173,2.0,5.0,100,0.00,,,0.00,HR-IXPWINDi_r2_v1.2.,2013-01-13 19:12:00,
2013-01-13 14:17:00,41.6,41.5,30.04,South,191,0.0,5.0,100,0.00,,,0.00,HR-IXPWINDi_r2_v1.2.,2013-01-13 19:17:00,
2013-01-13 14:22:00,41.8,41.7,30.04,South,187,1.0,3.0,100,0.00,,,0.00,HR-IXPWINDi_r2_v1.2.,2013-01-13 19:22:00,
2013-01-13 14:27:00,41.8,41.7,30.04,South,181,0.0,4.0,100,0.00,,,0.00,HR-IXPWINDi_r2_v1.2.,2013-01-13 19:27:00,
2013-01-13 14:33:00,41.7,41.6,30.05,South,186,2.0,4.0,100,0.00,,,0.00,HR-IXPWINDi_r2_v1.2.,2013-01-13 19:33:00,
2013-01-13 14:38:00,41.7,41.6,30.05,SSW,198,2.0,3.0,100,0.00,,,0.00,HR-IXPWINDi_r2_v1.2.,2013-01-13 19:38:00,
2013-01-13 14:43:00,41.9,41.8,30.04,SSW,202,2.0,3.0,100,0.00,,,0.00,HR-IXPWINDi_r2_v1.2.,2013-01-13 19:43:00,
2013-01-13 14:48:00,41.9,41.8,30.04,South,190,0.0,4.0,100,0.00,,,0.00,HR-IXPWINDi_r2_v1.2.,2013-01-13 19:48:00,
2013-01-13 14:53:00,41.7,41.6,30.04,SSW,192,0.0,4.0,100,0.00,,,0.00,HR-IXPWINDi_r2_v1.2.,2013-01-13 19:53:00,
2013-01-13 14:58:00,41.5,41.4,30.02,SSW,198,0.0,1.0,100,0.00,,,0.00,HR-IXPWINDi_r2_v1.2.,2013-01-13 19:58:00,
2013-01-13 15:03:00,42.0,41.9,30.04,SSW,209,0.0,5.0,100,0.00,,,0.00,HR-IXPWINDi_r2_v1.2.,2013-01-13 20:03:00,
2013-01-13 15:08:00,42.2,42.1,30.03,South,184,0.0,5.0,100,0.00,,,0.00,HR-IXPWINDi_r2_v1.2.,2013-01-13 20:08:00,
2013-01-13 15:13:00,42.1,42.0,30.03,South,188,1.0,2.0,100,0.00,,,0.00,HR-IXPWINDi_r2_v1.2.,2013-01-13 20:13:00,
2013-01-13 15:18:00,42.1,42.0,30.04,SSE,160,0.0,3.0,100,0.00,,,0.00,HR-IXPWINDi_r2_v1.2.,2013-01-13 20:18:00,
2013-01-13 15:23:00,41.9,41.8,30.04,South,185,0.0,3.0,100,0.00,,,0.00,HR-IXPWINDi_r2_v1.2.,2013-01-13 20:23:00,
2013-01-13 15:29:00,41.9,41.8,30.04,South,183,0.0,3.0,100,0.00,,,0.00,HR-IXPWINDi_r2_v1.2.,2013-01-13 20:29:00,
2013-01-13 15:34:00,41.8,41.7,30.04,South,186,0.0,3.0,100,0.00,,,0.00,HR-IXPWINDi_r2_v1.2.,2013-01-13 20:34:00,
2013-01-13 15:39:00,41.7,41.6,30.04,South,185,0.0,2.0,100,0.00,,,0.00,HR-IXPWINDi_r2_v1.2.,2013-01-13 20:39:00,
2013-01-13 15:44:00,41.5,41.4,30.04,South,185,0.0,2.0,100,0.00,,,0.00,HR-IXPWINDi_r2_v1.2.,2013-01-13 20:44:00,
2013-01-13 15:49:00,41.4,41.3,30.04,South,185,0.0,2.0,100,0.00,,,0.00,HR-IXPWINDi_r2_v1.2.,2013-01-13 20:49:00,
2013-01-13 15:54:00,41.3,41.2,30.02,South,185,0.0,0.0,100,0.00,,,0.00,HR-IXPWINDi_r2_v1.2.,2013-01-13 20:54:00,
2013-01-13 15:59:00,41.1,41.0,30.03,South,186,0.0,0.0,100,0.00,,,0.00,HR-IXPWINDi_r2_v1.2.,2013-01-13 20:59:00,
2013-01-13 16:04:00,40.9,40.8,30.03,South,185,0.0,0.0,100,0.00,,,0.00,HR-IXPWINDi_r2_v1.2.,2013-01-13 21:04:00,
2013-01-13 16:10:00,41.3,41.2,30.04,South,183,1.0,2.0,100,0.00,,,0.00,HR-IXPWINDi_r2_v1.2.,2013-01-13 21:10:00,
2013-01-13 16:15:00,41.4,41.3,30.03,SSW,213,0.0,2.0,100,0.00,,,0.00,HR-IXPWINDi_r2_v1.2.,2013-01-13 21:15:00,
2013-01-13 16:20:00,41.4,41.3,30.02,SSW,213,0.0,2.0,100,0.00,,,0.00,HR-IXPWINDi_r2_v1.2.,2013-01-13 21:20:00,
2013-01-13 16:25:00,41.3,41.2,30.02,South,191,0.0,4.0,100,0.00,,,0.00,HR-IXPWINDi_r2_v1.2.,2013-01-13 21:25:00,
2013-01-13 16:30:00,41.3,41.2,30.02,South,169,0.0,4.0,100,0.00,,,0.00,HR-IXPWINDi_r2_v1.2.,2013-01-13 21:30:00,
2013-01-13 16:35:00,41.4,41.3,30.02,South,188,0.0,2.0,100,0.00,,,0.00,HR-IXPWINDi_r2_v1.2.,2013-01-13 21:35:00,
2013-01-13 16:40:00,41.2,41.1,30.02,South,189,0.0,1.0,100,0.00,,,0.00,HR-IXPWINDi_r2_v1.2.,2013-01-13 21:40:00,
2013-01-13 16:46:00,41.4,41.3,30.03,SSW,200,1.0,2.0,100,0.00,,,0.00,HR-IXPWINDi_r2_v1.2.,2013-01-13 21:46:00,
2013-01-13 16:51:00,41.2,41.1,30.04,SSW,207,0.0,2.0,100,0.00,,,0.00,HR-IXPWINDi_r2_v1.2.,2013-01-13 21:51:00,
2013-01-13 16:56:00,41.1,41.0,30.04,SSW,206,0.0,2.0,100,0.00,,,0.00,HR-IXPWINDi_r2_v1.2.,2013-01-13 21:56:00,
2013-01-13 17:01:00,41.1,41.0,30.03,South,188,0.0,2.0,100,0.00,,,0.00,HR-IXPWINDi_r2_v1.2.,2013-01-13 22:01:00,
2013-01-13 17:06:00,40.6,40.5,30.03,South,188,0.0,2.0,100,0.00,,,0.00,HR-IXPWINDi_r2_v1.2.,2013-01-13 22:06:00,
2013-01-13 17:12:00,40.8,40.7,30.02,SSW,211,0.0,2.0,100,0.00,,,0.01,HR-IXPWINDi_r2_v1.2.,2013-01-13 22:12:00,
2013-01-13 17:17:00,40.9,40.8,30.02,South,173,0.0,2.0,100,0.00,,,0.01,HR-IXPWINDi_r2_v1.2.,2013-01-13 22:17:00,
2013-01-13 17:22:00,40.9,40.8,30.02,South,176,0.0,2.0,100,0.00,,,0.01,HR-IXPWINDi_r2_v1.2.,2013-01-13 22:22:00,
2013-01-13 17:27:00,40.8,40.7,30.02,South,186,0.0,1.0,100,0.00,,,0.01,HR-IXPWINDi_r2_v1.2.,2013-01-13 22:27:00,
2013-01-13 17:32:00,40.9,40.8,30.03,South,188,0.0,1.0,100,0.00,,,0.01,HR-IXPWINDi_r2_v1.2.,2013-01-13 22:32:00,
2013-01-13 17:38:00,41.0,40.9,30.03,South,189,0.0,1.0,100,0.00,,,0.01,HR-IXPWINDi_r2_v1.2.,2013-01-13 22:38:00,
2013-01-13 17:43:00,41.0,40.9,30.03,South,190,0.0,1.0,100,0.00,,,0.01,HR-IXPWINDi_r2_v1.2.,2013-01-13 22:43:00,
2013-01-13 17:48:00,41.1,41.0,30.03,South,178,1.0,1.0,100,0.00,,,0.01,HR-IXPWINDi_r2_v1.2.,2013-01-13 22:48:00,
2013-01-13 17:53:00,41.0,40.9,30.04,South,171,0.0,2.0,100,0.00,,,0.01,HR-IXPWINDi_r2_v1.2.,2013-01-13 22:53:00,
2013-01-13 17:58:00,41.0,40.9,30.03,South,173,0.0,2.0,100,0.00,,,0.01,HR-IXPWINDi_r2_v1.2.,2013-01-13 22:58:00,
2013-01-13 18:03:00,40.9,40.8,30.02,South,173,0.0,2.0,100,0.00,,,0.01,HR-IXPWINDi_r2_v1.2.,2013-01-13 23:03:00,
2013-01-13 18:09:00,40.8,40.7,30.03,South,184,0.0,1.0,100,0.00,,,0.01,HR-IXPWINDi_r2_v1.2.,2013-01-13 23:09:00,
2013-01-13 18:14:00,40.6,40.5,30.03,South,183,0.0,0.0,100,0.00,,,0.01,HR-IXPWINDi_r2_v1.2.,2013-01-13 23:14:00,
2013-01-13 18:19:00,40.8,40.7,30.03,South,184,0.0,0.0,100,0.00,,,0.01,HR-IXPWINDi_r2_v1.2.,2013-01-13 23:19:00,
2013-01-13 18:24:00,41.1,41.0,30.03,South,188,1.0,2.0,100,0.00,,,0.01,HR-IXPWINDi_r2_v1.2.,2013-01-13 23:24:00,
2013-01-13 18:29:00,41.3,41.2,30.04,SSW,192,0.0,3.0,100,0.00,,,0.01,HR-IXPWINDi_r2_v1.2.,2013-01-13 23:29:00,
2013-01-13 18:34:00,41.3,41.2,30.04,SSW,198,0.0,3.0,100,0.00,,,0.01,HR-IXPWINDi_r2_v1.2.,2013-01-13 23:34:00,
2013-01-13 18:39:00,41.1,41.0,30.04,SSW,197,0.0,3.0,100,0.00,,,0.01,HR-IXPWINDi_r2_v1.2.,2013-01-13 23:39:00,
2013-01-13 18:45:00,40.8,40.7,30.04,SSW,200,0.0,1.0,100,0.00,,,0.01,HR-IXPWINDi_r2_v1.2.,2013-01-13 23:45:00,
2013-01-13 18:50:00,40.4,40.3,30.04,SSW,200,0.0,1.0,100,0.00,,,0.01,HR-IXPWINDi_r2_v1.2.,2013-01-13 23:50:00,
2013-01-13 18:55:00,40.7,40.6,30.04,SSW,195,0.0,2.0,100,0.00,,,0.01,HR-IXPWINDi_r2_v1.2.,2013-01-13 23:55:00,
2013-01-13 19:00:00,40.4,40.3,30.04,SSW,195,0.0,2.0,100,0.00,,,0.01,HR-IXPWINDi_r2_v1.2.,2013-01-14 00:00:00,
2013-01-13 19:05:00,40.6,40.5,30.04,SSW,196,0.0,2.0,100,0.00,,,0.01,HR-IXPWINDi_r2_v1.2.,2013-01-14 00:05:00,
2013-01-13 19:11:00,40.3,40.2,30.04,SSW,197,0.0,2.0,100,0.00,,,0.01,HR-IXPWINDi_r2_v1.2.,2013-01-14 00:11:00,
2013-01-13 19:16:00,40.3,40.2,30.04,South,181,0.0,2.0,100,0.00,,,0.01,HR-IXPWINDi_r2_v1.2.,2013-01-14 00:16:00,
2013-01-13 19:21:00,40.4,40.3,30.04,South,180,0.0,2.0,100,0.00,,,0.01,HR-IXPWINDi_r2_v1.2.,2013-01-14 00:21:00,
2013-01-13 19:26:00,40.1,40.0,30.03,South,170,0.0,2.0,100,0.00,,,0.01,HR-IXPWINDi_r2_v1.2.,2013-01-14 00:26:00,
2013-01-13 19:31:00,39.6,39.5,30.03,South,170,0.0,0.0,100,0.00,,,0.01,HR-IXPWINDi_r2_v1.2.,2013-01-14 00:31:00,
2013-01-13 19:36:00,39.2,39.1,30.03,South,183,0.0,1.0,100,0.00,,,0.01,HR-IXPWINDi_r2_v1.2.,2013-01-14 00:36:00,
2013-01-13 19:42:00,39.5,39.4,30.03,South,180,0.0,1.0,100,0.00,,,0.01,HR-IXPWINDi_r2_v1.2.,2013-01-14 00:42:00,
2013-01-13 19:47:00,40.3,40.2,30.02,SSW,192,1.0,3.0,100,0.00,,,0.01,HR-IXPWINDi_r2_v1.2.,2013-01-14 00:47:00,
2013-01-13 19:52:00,40.8,40.7,30.03,SSW,195,0.0,3.0,100,0.00,,,0.01,HR-IXPWINDi_r2_v1.2.,2013-01-14 00:52:00,
2013-01-13 19:57:00,40.7,40.6,30.03,SSW,196,1.0,4.0,100,0.00,,,0.01,HR-IXPWINDi_r2_v1.2.,2013-01-14 00:57:00,
2013-01-13 20:02:00,40.7,40.6,30.03,South,189,0.0,4.0,100,0.00,,,0.01,HR-IXPWINDi_r2_v1.2.,2013-01-14 01:02:00,
2013-01-13 20:08:00,40.9,40.8,30.03,SSW,202,1.0,5.0,100,0.00,,,0.01,HR-IXPWINDi_r2_v1.2.,2013-01-14 01:08:00,
2013-01-13 20:13:00,40.9,40.8,30.03,SSW,194,0.0,5.0,100,0.00,,,0.01,HR-IXPWINDi_r2_v1.2.,2013-01-14 01:13:00,
2013-01-13 20:18:00,41.0,40.9,30.03,South,182,0.0,3.0,100,0.00,,,0.01,HR-IXPWINDi_r2_v1.2.,2013-01-14 01:18:00,
2013-01-13 20:23:00,41.0,40.9,30.02,South,185,0.0,4.0,100,0.00,,,0.01,HR-IXPWINDi_r2_v1.2.,2013-01-14 01:23:00,
2013-01-13 20:28:00,40.9,40.8,30.02,South,187,0.0,4.0,100,0.00,,,0.01,HR-IXPWINDi_r2_v1.2.,2013-01-14 01:28:00,
2013-01-13 20:33:00,40.7,40.6,30.02,South,187,0.0,1.0,100,0.00,,,0.01,HR-IXPWINDi_r2_v1.2.,2013-01-14 01:33:00,
2013-01-13 20:39:00,40.5,40.4,30.02,South,191,0.0,1.0,100,0.00,,,0.01,HR-IXPWINDi_r2_v1.2.,2013-01-14 01:39:00,
2013-01-13 20:44:00,40.8,40.7,30.02,SSW,197,0.0,2.0,100,0.00,,,0.01,HR-IXPWINDi_r2_v1.2.,2013-01-14 01:44:00,
2013-01-13 20:49:00,40.8,40.7,30.01,South,183,0.0,2.0,100,0.00,,,0.01,HR-IXPWINDi_r2_v1.2.,2013-01-14 01:49:00,
2013-01-13 20:55:00,40.7,40.6,30.01,SSW,194,0.0,2.0,100,0.00,,,0.01,HR-IXPWINDi_r2_v1.2.,2013-01-14 01:55:00,
2013-01-13 21:00:00,40.8,40.7,30.01,SSW,204,2.0,3.0,100,0.00,,,0.01,HR-IXPWINDi_r2_v1.2.,2013-01-14 02:00:00,
2013-01-13 21:05:00,40.8,40.7,30.01,South,190,1.0,3.0,100,0.00,,,0.01,HR-IXPWINDi_r2_v1.2.,2013-01-14 02:05:00,
2013-01-13 21:10:00,40.8,40.7,30.00,SSW,192,2.0,2.0,100,0.00,,,0.01,HR-IXPWINDi_r2_v1.2.,2013-01-14 02:10:00,
2013-01-13 21:15:00,40.9,40.8,30.01,SSW,200,1.0,4.0,100,0.00,,,0.01,HR-IXPWINDi_r2_v1.2.,2013-01-14 02:15:00,
2013-01-13 21:21:00,41.0,40.9,30.00,SSW,199,0.0,5.0,100,0.00,,,0.01,HR-IXPWINDi_r2_v1.2.,2013-01-14 02:21:00,
2013-01-13 21:26:00,41.0,40.9,30.01,SE,136,4.0,5.0,100,0.00,,,0.01,HR-IXPWINDi_r2_v1.2.,2013-01-14 02:26:00,
2013-01-13 21:31:00,41.0,40.9,30.01,SSW,193,1.0,4.0,100,0.00,,,0.01,HR-IXPWINDi_r2_v1.2.,2013-01-14 02:31:00,
2013-01-13 21:36:00,41.0,40.9,30.01,South,171,0.0,4.0,100,0.00,,,0.01,HR-IXPWINDi_r2_v1.2.,2013-01-14 02:36:00,
2013-01-13 21:42:00,40.9,40.8,30.00,South,178,0.0,3.0,100,0.00,,,0.01,HR-IXPWINDi_r2_v1.2.,2013-01-14 02:42:00,
2013-01-13 21:47:00,40.8,40.7,30.01,South,184,0.0,3.0,100,0.00,,,0.01,HR-IXPWINDi_r2_v1.2.,2013-01-14 02:47:00,
2013-01-13 21:52:00,40.8,40.7,30.01,South,191,0.0,3.0,100,0.00,,,0.01,HR-IXPWINDi_r2_v1.2.,2013-01-14 02:52:00,
2013-01-13 21:57:00,40.7,40.6,30.00,SSW,192,0.0,3.0,100,0.00,,,0.01,HR-IXPWINDi_r2_v1.2.,2013-01-14 02:57:00,
2013-01-13 22:03:00,40.7,40.6,30.01,South,191,0.0,2.0,100,0.00,,,0.01,HR-IXPWINDi_r2_v1.2.,2013-01-14 03:03:00,
2013-01-13 22:08:00,40.9,40.8,30.01,South,186,0.0,2.0,100,0.00,,,0.01,HR-IXPWINDi_r2_v1.2.,2013-01-14 03:08:00,
2013-01-13 22:13:00,41.0,40.9,30.01,South,184,1.0,5.0,100,0.00,,,0.01,HR-IXPWINDi_r2_v1.2.,2013-01-14 03:13:00,
2013-01-13 22:18:00,40.9,40.8,30.01,South,176,1.0,5.0,100,0.00,,,0.01,HR-IXPWINDi_r2_v1.2.,2013-01-14 03:18:00,
2013-01-13 22:23:00,40.9,40.8,30.01,SSW,192,2.0,3.0,100,0.00,,,0.01,HR-IXPWINDi_r2_v1.2.,2013-01-14 03:23:00,
2013-01-13 22:29:00,40.9,40.8,30.01,South,173,1.0,3.0,100,0.00,,,0.01,HR-IXPWINDi_r2_v1.2.,2013-01-14 03:29:00,
2013-01-13 22:34:00,40.9,40.8,30.01,South,184,0.0,4.0,100,0.00,,,0.01,HR-IXPWINDi_r2_v1.2.,2013-01-14 03:34:00,
2013-01-13 22:39:00,40.6,40.5,30.01,SSE,163,0.0,4.0,100,0.00,,,0.01,HR-IXPWINDi_r2_v1.2.,2013-01-14 03:39:00,
2013-01-13 22:44:00,40.5,40.4,30.01,South,171,2.0,3.0,100,0.00,,,0.01,HR-IXPWINDi_r2_v1.2.,2013-01-14 03:44:00,
2013-01-13 22:49:00,40.7,40.6,30.01,SSE,164,3.0,4.0,100,0.00,,,0.01,HR-IXPWINDi_r2_v1.2.,2013-01-14 03:49:00,
2013-01-13 22:55:00,40.6,40.5,30.01,South,186,0.0,4.0,100,0.00,,,0.01,HR-IXPWINDi_r2_v1.2.,2013-01-14 03:55:00,
2013-01-13 23:00:00,40.6,40.5,30.01,South,184,1.0,4.0,100,0.00,,,0.01,HR-IXPWINDi_r2_v1.2.,2013-01-14 04:00:00,
2013-01-13 23:05:00,40.5,40.4,30.01,South,172,0.0,3.0,100,0.00,,,0.01,HR-IXPWINDi_r2_v1.2.,2013-01-14 04:05:00,
2013-01-13 23:10:00,40.6,40.5,30.01,South,184,2.0,4.0,100,0.00,,,0.01,HR-IXPWINDi_r2_v1.2.,2013-01-14 04:10:00,
2013-01-13 23:15:00,40.7,40.6,30.01,SSE,163,4.0,4.0,100,0.00,,,0.01,HR-IXPWINDi_r2_v1.2.,2013-01-14 04:15:00,
2013-01-13 23:21:00,40.8,40.7,30.01,SSW,192,3.0,5.0,100,0.00,,,0.01,HR-IXPWINDi_r2_v1.2.,2013-01-14 04:21:00,
2013-01-13 23:26:00,40.6,40.5,30.00,SSW,199,0.0,5.0,100,0.00,,,0.01,HR-IXPWINDi_r2_v1.2.,2013-01-14 04:26:00,
2013-01-13 23:31:00,40.6,40.5,30.00,South,171,1.0,6.0,100,0.00,,,0.01,HR-IXPWINDi_r2_v1.2.,2013-01-14 04:31:00,
2013-01-13 23:36:00,40.4,40.3,30.01,SSW,204,1.0,6.0,100,0.00,,,0.01,HR-IXPWINDi_r2_v1.2.,2013-01-14 04:36:00,
2013-01-13 23:41:00,40.3,40.2,30.00,SSW,195,0.0,2.0,100,0.00,,,0.01,HR-IXPWINDi_r2_v1.2.,2013-01-14 04:41:00,
2013-01-13 23:47:00,40.4,40.3,30.00,SSW,192,0.0,4.0,100,0.00,,,0.01,HR-IXPWINDi_r2_v1.2.,2013-01-14 04:47:00,
2013-01-13 23:52:00,40.2,40.1,30.00,South,171,0.0,4.0,100,0.00,,,0.01,HR-IXPWINDi_r2_v1.2.,2013-01-14 04:52:00,
2013-01-13 23:57:00,40.1,40.0,29.99,South,185,0.0,2.0,100,0.00,,,0.01,HR-IXPWINDi_r2_v1.2.,2013-01-14 04:57:00,